sensor_id;sensor_type;location;lat;lon;timestamp;temperature;humidity
30999;DHT22;20549;50.042;8.968;2023-05-21T00:01:09;17.30;73.50
30999;DHT22;20549;50.042;8.968;2023-05-21T00:03:36;17.30;73.60
30999;DHT22;20549;50.042;8.968;2023-05-21T00:06:02;17.30;74.60
30999;DHT22;20549;50.042;8.968;2023-05-21T00:08:29;17.30;73.90
30999;DHT22;20549;50.042;8.968;2023-05-21T00:10:55;17.30;74.10
30999;DHT22;20549;50.042;8.968;2023-05-21T00:13:22;17.30;74.10
30999;DHT22;20549;50.042;8.968;2023-05-21T00:15:49;17.20;74.30
30999;DHT22;20549;50.042;8.968;2023-05-21T00:18:15;17.20;74.40
30999;DHT22;20549;50.042;8.968;2023-05-21T00:20:42;17.20;74.50
30999;DHT22;20549;50.042;8.968;2023-05-21T00:23:08;17.20;74.70
30999;DHT22;20549;50.042;8.968;2023-05-21T00:25:35;17.20;74.90
30999;DHT22;20549;50.042;8.968;2023-05-21T00:28:02;17.20;74.90
30999;DHT22;20549;50.042;8.968;2023-05-21T00:30:28;17.20;75.10
30999;DHT22;20549;50.042;8.968;2023-05-21T00:32:55;17.20;75.30
30999;DHT22;20549;50.042;8.968;2023-05-21T00:35:21;17.20;75.30
30999;DHT22;20549;50.042;8.968;2023-05-21T00:37:48;17.20;75.50
30999;DHT22;20549;50.042;8.968;2023-05-21T00:40:15;17.20;75.50
30999;DHT22;20549;50.042;8.968;2023-05-21T00:42:41;17.20;75.90
30999;DHT22;20549;50.042;8.968;2023-05-21T00:45:08;17.20;76.00
30999;DHT22;20549;50.042;8.968;2023-05-21T00:47:34;17.20;76.10
30999;DHT22;20549;50.042;8.968;2023-05-21T00:50:02;17.20;76.10
30999;DHT22;20549;50.042;8.968;2023-05-21T00:52:27;17.20;76.30
30999;DHT22;20549;50.042;8.968;2023-05-21T00:54:54;17.20;76.40
30999;DHT22;20549;50.042;8.968;2023-05-21T00:57:21;17.20;76.30
30999;DHT22;20549;50.042;8.968;2023-05-21T00:59:50;17.20;76.60
30999;DHT22;20549;50.042;8.968;2023-05-21T01:02:14;17.20;76.80
30999;DHT22;20549;50.042;8.968;2023-05-21T01:04:40;17.20;76.80
30999;DHT22;20549;50.042;8.968;2023-05-21T01:07:07;17.20;76.90
30999;DHT22;20549;50.042;8.968;2023-05-21T01:09:34;17.20;77.00
30999;DHT22;20549;50.042;8.968;2023-05-21T01:12:00;17.20;77.20
30999;DHT22;20549;50.042;8.968;2023-05-21T01:14:27;17.20;77.40
30999;DHT22;20549;50.042;8.968;2023-05-21T01:16:53;17.20;77.40
30999;DHT22;20549;50.042;8.968;2023-05-21T01:19:21;17.20;77.50
30999;DHT22;20549;50.042;8.968;2023-05-21T01:21:51;17.20;77.60
30999;DHT22;20549;50.042;8.968;2023-05-21T01:24:16;17.20;77.70
30999;DHT22;20549;50.042;8.968;2023-05-21T01:26:42;17.20;77.90
30999;DHT22;20549;50.042;8.968;2023-05-21T01:29:09;17.20;78.10
30999;DHT22;20549;50.042;8.968;2023-05-21T01:31:51;17.20;78.20
30999;DHT22;20549;50.042;8.968;2023-05-21T01:34:14;17.20;78.30
30999;DHT22;20549;50.042;8.968;2023-05-21T01:36:42;17.20;78.30
30999;DHT22;20549;50.042;8.968;2023-05-21T01:39:14;17.20;78.60
30999;DHT22;20549;50.042;8.968;2023-05-21T01:41:40;17.20;78.80
30999;DHT22;20549;50.042;8.968;2023-05-21T01:44:06;17.20;78.90
30999;DHT22;20549;50.042;8.968;2023-05-21T01:46:33;17.20;79.00
30999;DHT22;20549;50.042;8.968;2023-05-21T01:48:59;17.20;79.30
30999;DHT22;20549;50.042;8.968;2023-05-21T01:51:26;17.30;79.50
30999;DHT22;20549;50.042;8.968;2023-05-21T01:53:52;17.30;79.50
30999;DHT22;20549;50.042;8.968;2023-05-21T01:56:19;17.30;79.60
30999;DHT22;20549;50.042;8.968;2023-05-21T01:58:46;17.20;79.70
30999;DHT22;20549;50.042;8.968;2023-05-21T02:01:12;17.30;79.80
30999;DHT22;20549;50.042;8.968;2023-05-21T02:03:39;17.30;79.90
30999;DHT22;20549;50.042;8.968;2023-05-21T02:06:05;17.30;80.00
30999;DHT22;20549;50.042;8.968;2023-05-21T02:08:32;17.30;80.10
30999;DHT22;20549;50.042;8.968;2023-05-21T02:10:58;17.30;80.20
30999;DHT22;20549;50.042;8.968;2023-05-21T02:13:25;17.30;80.30
30999;DHT22;20549;50.042;8.968;2023-05-21T02:15:52;17.30;80.30
30999;DHT22;20549;50.042;8.968;2023-05-21T02:18:18;17.30;80.50
30999;DHT22;20549;50.042;8.968;2023-05-21T02:20:45;17.30;80.50
30999;DHT22;20549;50.042;8.968;2023-05-21T02:23:11;17.30;80.70
30999;DHT22;20549;50.042;8.968;2023-05-21T02:25:38;17.30;80.80
30999;DHT22;20549;50.042;8.968;2023-05-21T02:28:05;17.30;80.90
30999;DHT22;20549;50.042;8.968;2023-05-21T02:30:31;17.30;81.00
30999;DHT22;20549;50.042;8.968;2023-05-21T02:32:58;17.30;81.40
30999;DHT22;20549;50.042;8.968;2023-05-21T02:35:24;17.30;81.30
30999;DHT22;20549;50.042;8.968;2023-05-21T02:37:51;17.30;81.40
30999;DHT22;20549;50.042;8.968;2023-05-21T02:40:18;17.30;81.60
30999;DHT22;20549;50.042;8.968;2023-05-21T02:42:44;17.30;81.70
30999;DHT22;20549;50.042;8.968;2023-05-21T02:45:11;17.30;81.90
30999;DHT22;20549;50.042;8.968;2023-05-21T02:47:37;17.30;81.90
30999;DHT22;20549;50.042;8.968;2023-05-21T02:50:04;17.30;82.10
30999;DHT22;20549;50.042;8.968;2023-05-21T02:52:31;17.30;82.20
30999;DHT22;20549;50.042;8.968;2023-05-21T02:54:57;17.30;82.30
30999;DHT22;20549;50.042;8.968;2023-05-21T02:57:24;17.30;82.50
30999;DHT22;20549;50.042;8.968;2023-05-21T02:59:50;17.30;82.50
30999;DHT22;20549;50.042;8.968;2023-05-21T03:02:17;17.30;82.60
30999;DHT22;20549;50.042;8.968;2023-05-21T03:04:44;17.30;82.60
30999;DHT22;20549;50.042;8.968;2023-05-21T03:07:13;17.30;82.70
30999;DHT22;20549;50.042;8.968;2023-05-21T03:09:40;17.30;82.80
30999;DHT22;20549;50.042;8.968;2023-05-21T03:12:06;17.30;83.00
30999;DHT22;20549;50.042;8.968;2023-05-21T03:14:33;17.30;83.90
30999;DHT22;20549;50.042;8.968;2023-05-21T03:16:59;17.30;83.30
30999;DHT22;20549;50.042;8.968;2023-05-21T03:19:26;17.30;83.40
30999;DHT22;20549;50.042;8.968;2023-05-21T03:21:52;17.30;83.70
30999;DHT22;20549;50.042;8.968;2023-05-21T03:24:19;17.30;83.50
30999;DHT22;20549;50.042;8.968;2023-05-21T03:26:46;17.30;83.70
30999;DHT22;20549;50.042;8.968;2023-05-21T03:29:12;17.30;83.70
30999;DHT22;20549;50.042;8.968;2023-05-21T03:31:39;17.30;83.80
30999;DHT22;20549;50.042;8.968;2023-05-21T03:34:05;17.30;84.00
30999;DHT22;20549;50.042;8.968;2023-05-21T03:36:32;17.30;84.10
30999;DHT22;20549;50.042;8.968;2023-05-21T03:38:58;17.30;84.10
30999;DHT22;20549;50.042;8.968;2023-05-21T03:41:25;17.30;84.20
30999;DHT22;20549;50.042;8.968;2023-05-21T03:43:52;17.30;84.30
30999;DHT22;20549;50.042;8.968;2023-05-21T03:46:18;17.30;84.40
30999;DHT22;20549;50.042;8.968;2023-05-21T03:48:45;17.30;84.40
30999;DHT22;20549;50.042;8.968;2023-05-21T03:51:11;17.30;84.60
30999;DHT22;20549;50.042;8.968;2023-05-21T03:53:38;17.20;84.60
30999;DHT22;20549;50.042;8.968;2023-05-21T03:56:05;17.20;84.70
30999;DHT22;20549;50.042;8.968;2023-05-21T03:58:31;17.20;84.80
30999;DHT22;20549;50.042;8.968;2023-05-21T04:00:58;17.20;85.00
30999;DHT22;20549;50.042;8.968;2023-05-21T04:03:24;17.20;85.00
30999;DHT22;20549;50.042;8.968;2023-05-21T04:05:51;17.20;85.30
30999;DHT22;20549;50.042;8.968;2023-05-21T04:08:18;17.20;85.40
30999;DHT22;20549;50.042;8.968;2023-05-21T04:10:44;17.20;85.70
30999;DHT22;20549;50.042;8.968;2023-05-21T04:13:11;17.20;85.80
30999;DHT22;20549;50.042;8.968;2023-05-21T04:15:37;17.20;86.20
30999;DHT22;20549;50.042;8.968;2023-05-21T04:18:04;17.20;86.40
30999;DHT22;20549;50.042;8.968;2023-05-21T04:20:31;17.20;86.60
30999;DHT22;20549;50.042;8.968;2023-05-21T04:22:57;17.20;86.80
30999;DHT22;20549;50.042;8.968;2023-05-21T04:25:24;17.20;87.10
30999;DHT22;20549;50.042;8.968;2023-05-21T04:27:50;17.20;87.10
30999;DHT22;20549;50.042;8.968;2023-05-21T04:30:17;17.20;87.10
30999;DHT22;20549;50.042;8.968;2023-05-21T04:32:43;17.20;87.20
30999;DHT22;20549;50.042;8.968;2023-05-21T04:35:10;17.30;87.50
30999;DHT22;20549;50.042;8.968;2023-05-21T04:37:37;17.30;87.60
30999;DHT22;20549;50.042;8.968;2023-05-21T04:40:03;17.30;87.80
30999;DHT22;20549;50.042;8.968;2023-05-21T04:42:30;17.40;88.10
30999;DHT22;20549;50.042;8.968;2023-05-21T04:44:56;17.40;88.20
30999;DHT22;20549;50.042;8.968;2023-05-21T04:47:23;17.40;88.20
30999;DHT22;20549;50.042;8.968;2023-05-21T04:49:50;17.50;88.30
30999;DHT22;20549;50.042;8.968;2023-05-21T04:52:16;17.50;88.60
30999;DHT22;20549;50.042;8.968;2023-05-21T04:54:43;17.60;88.50
30999;DHT22;20549;50.042;8.968;2023-05-21T04:57:09;17.60;88.60
30999;DHT22;20549;50.042;8.968;2023-05-21T04:59:36;17.70;88.80
30999;DHT22;20549;50.042;8.968;2023-05-21T05:02:03;17.80;89.00
30999;DHT22;20549;50.042;8.968;2023-05-21T05:04:30;17.90;89.20
30999;DHT22;20549;50.042;8.968;2023-05-21T05:06:56;18.00;89.50
30999;DHT22;20549;50.042;8.968;2023-05-21T05:09:22;18.10;90.00
30999;DHT22;20549;50.042;8.968;2023-05-21T05:11:49;18.20;90.00
30999;DHT22;20549;50.042;8.968;2023-05-21T05:14:16;18.40;90.10
30999;DHT22;20549;50.042;8.968;2023-05-21T05:16:42;18.50;90.40
30999;DHT22;20549;50.042;8.968;2023-05-21T05:19:09;18.70;90.50
30999;DHT22;20549;50.042;8.968;2023-05-21T05:21:35;19.00;90.60
30999;DHT22;20549;50.042;8.968;2023-05-21T05:24:02;19.30;90.40
30999;DHT22;20549;50.042;8.968;2023-05-21T05:26:28;19.50;90.00
30999;DHT22;20549;50.042;8.968;2023-05-21T05:28:55;19.80;89.00
30999;DHT22;20549;50.042;8.968;2023-05-21T05:31:22;20.00;87.80
30999;DHT22;20549;50.042;8.968;2023-05-21T05:33:48;20.30;86.90
30999;DHT22;20549;50.042;8.968;2023-05-21T05:36:15;20.50;85.20
30999;DHT22;20549;50.042;8.968;2023-05-21T05:38:41;20.70;83.40
30999;DHT22;20549;50.042;8.968;2023-05-21T05:41:08;20.80;81.60
30999;DHT22;20549;50.042;8.968;2023-05-21T05:43:35;21.00;80.40
30999;DHT22;20549;50.042;8.968;2023-05-21T05:46:01;21.00;79.60
30999;DHT22;20549;50.042;8.968;2023-05-21T05:48:28;21.10;79.20
30999;DHT22;20549;50.042;8.968;2023-05-21T05:50:54;21.10;78.70
30999;DHT22;20549;50.042;8.968;2023-05-21T05:53:21;21.20;78.80
30999;DHT22;20549;50.042;8.968;2023-05-21T05:55:48;21.20;78.90
30999;DHT22;20549;50.042;8.968;2023-05-21T05:58:14;21.40;78.90
30999;DHT22;20549;50.042;8.968;2023-05-21T06:00:41;21.50;78.70
30999;DHT22;20549;50.042;8.968;2023-05-21T06:03:07;21.60;78.20
30999;DHT22;20549;50.042;8.968;2023-05-21T06:05:34;21.80;77.90
30999;DHT22;20549;50.042;8.968;2023-05-21T06:08:00;21.90;78.10
30999;DHT22;20549;50.042;8.968;2023-05-21T06:10:27;22.10;77.90
30999;DHT22;20549;50.042;8.968;2023-05-21T06:12:54;22.30;77.40
30999;DHT22;20549;50.042;8.968;2023-05-21T06:15:20;22.50;76.70
30999;DHT22;20549;50.042;8.968;2023-05-21T06:17:47;22.70;76.00
30999;DHT22;20549;50.042;8.968;2023-05-21T06:20:14;22.90;75.30
30999;DHT22;20549;50.042;8.968;2023-05-21T06:22:40;23.10;74.60
30999;DHT22;20549;50.042;8.968;2023-05-21T06:25:07;23.20;73.90
30999;DHT22;20549;50.042;8.968;2023-05-21T06:27:33;23.40;73.20
30999;DHT22;20549;50.042;8.968;2023-05-21T06:30:00;23.50;72.70
30999;DHT22;20549;50.042;8.968;2023-05-21T06:32:27;23.70;73.50
30999;DHT22;20549;50.042;8.968;2023-05-21T06:34:53;23.90;72.80
30999;DHT22;20549;50.042;8.968;2023-05-21T06:37:20;24.20;73.10
30999;DHT22;20549;50.042;8.968;2023-05-21T06:39:46;24.50;73.00
30999;DHT22;20549;50.042;8.968;2023-05-21T06:42:13;24.90;73.60
30999;DHT22;20549;50.042;8.968;2023-05-21T06:44:40;25.50;73.80
30999;DHT22;20549;50.042;8.968;2023-05-21T06:47:06;26.10;73.70
30999;DHT22;20549;50.042;8.968;2023-05-21T06:49:33;26.80;73.40
30999;DHT22;20549;50.042;8.968;2023-05-21T06:51:59;27.60;72.50
30999;DHT22;20549;50.042;8.968;2023-05-21T06:54:26;28.40;71.10
30999;DHT22;20549;50.042;8.968;2023-05-21T06:56:52;29.20;68.70
30999;DHT22;20549;50.042;8.968;2023-05-21T06:59:19;30.00;66.70
30999;DHT22;20549;50.042;8.968;2023-05-21T07:01:46;30.70;65.30
30999;DHT22;20549;50.042;8.968;2023-05-21T07:04:12;31.40;63.20
30999;DHT22;20549;50.042;8.968;2023-05-21T07:06:39;32.10;60.20
30999;DHT22;20549;50.042;8.968;2023-05-21T07:09:05;32.60;58.90
30999;DHT22;20549;50.042;8.968;2023-05-21T07:11:32;33.00;58.10
30999;DHT22;20549;50.042;8.968;2023-05-21T07:13:59;33.30;57.20
30999;DHT22;20549;50.042;8.968;2023-05-21T07:16:25;33.60;56.40
30999;DHT22;20549;50.042;8.968;2023-05-21T07:18:52;33.90;55.60
30999;DHT22;20549;50.042;8.968;2023-05-21T07:21:18;34.20;55.10
30999;DHT22;20549;50.042;8.968;2023-05-21T07:23:45;34.50;54.30
30999;DHT22;20549;50.042;8.968;2023-05-21T07:26:11;34.70;53.70
30999;DHT22;20549;50.042;8.968;2023-05-21T07:28:38;35.00;53.00
30999;DHT22;20549;50.042;8.968;2023-05-21T07:31:05;35.20;52.50
30999;DHT22;20549;50.042;8.968;2023-05-21T07:33:32;35.40;52.00
30999;DHT22;20549;50.042;8.968;2023-05-21T07:35:58;35.50;51.30
30999;DHT22;20549;50.042;8.968;2023-05-21T07:38:24;35.50;50.50
30999;DHT22;20549;50.042;8.968;2023-05-21T07:40:51;35.50;49.90
30999;DHT22;20549;50.042;8.968;2023-05-21T07:43:18;35.50;49.60
30999;DHT22;20549;50.042;8.968;2023-05-21T07:45:44;35.30;49.30
30999;DHT22;20549;50.042;8.968;2023-05-21T07:48:11;35.20;49.20
30999;DHT22;20549;50.042;8.968;2023-05-21T07:50:37;35.10;49.20
30999;DHT22;20549;50.042;8.968;2023-05-21T07:53:04;35.00;49.00
30999;DHT22;20549;50.042;8.968;2023-05-21T07:55:31;35.00;48.80
30999;DHT22;20549;50.042;8.968;2023-05-21T07:57:57;34.80;48.60
30999;DHT22;20549;50.042;8.968;2023-05-21T08:00:24;34.70;48.50
30999;DHT22;20549;50.042;8.968;2023-05-21T08:02:50;34.60;48.50
30999;DHT22;20549;50.042;8.968;2023-05-21T08:05:17;34.50;48.50
30999;DHT22;20549;50.042;8.968;2023-05-21T08:07:44;34.50;48.50
30999;DHT22;20549;50.042;8.968;2023-05-21T08:10:10;34.40;48.40
30999;DHT22;20549;50.042;8.968;2023-05-21T08:12:37;34.40;48.30
30999;DHT22;20549;50.042;8.968;2023-05-21T08:15:03;34.30;48.10
30999;DHT22;20549;50.042;8.968;2023-05-21T08:17:30;34.20;48.10
30999;DHT22;20549;50.042;8.968;2023-05-21T08:19:56;34.10;48.20
30999;DHT22;20549;50.042;8.968;2023-05-21T08:22:23;34.10;49.00
30999;DHT22;20549;50.042;8.968;2023-05-21T08:24:50;34.20;48.70
30999;DHT22;20549;50.042;8.968;2023-05-21T08:27:16;34.40;48.70
30999;DHT22;20549;50.042;8.968;2023-05-21T08:29:43;34.60;48.80
30999;DHT22;20549;50.042;8.968;2023-05-21T08:32:09;35.00;48.40
30999;DHT22;20549;50.042;8.968;2023-05-21T08:34:36;35.40;47.90
30999;DHT22;20549;50.042;8.968;2023-05-21T08:37:03;35.80;47.30
30999;DHT22;20549;50.042;8.968;2023-05-21T08:39:29;36.10;46.20
30999;DHT22;20549;50.042;8.968;2023-05-21T08:41:56;36.40;45.30
30999;DHT22;20549;50.042;8.968;2023-05-21T08:44:22;36.60;44.80
30999;DHT22;20549;50.042;8.968;2023-05-21T08:46:49;36.80;44.50
30999;DHT22;20549;50.042;8.968;2023-05-21T08:49:16;36.90;44.10
30999;DHT22;20549;50.042;8.968;2023-05-21T08:51:43;37.00;44.00
30999;DHT22;20549;50.042;8.968;2023-05-21T08:54:09;37.30;44.00
30999;DHT22;20549;50.042;8.968;2023-05-21T08:56:35;37.50;43.30
30999;DHT22;20549;50.042;8.968;2023-05-21T08:59:02;37.70;42.60
30999;DHT22;20549;50.042;8.968;2023-05-21T09:01:28;37.80;42.00
30999;DHT22;20549;50.042;8.968;2023-05-21T09:03:55;37.80;41.30
30999;DHT22;20549;50.042;8.968;2023-05-21T09:06:22;37.80;41.00
30999;DHT22;20549;50.042;8.968;2023-05-21T09:08:49;37.60;41.20
30999;DHT22;20549;50.042;8.968;2023-05-21T09:11:15;37.50;41.10
30999;DHT22;20549;50.042;8.968;2023-05-21T09:13:41;37.40;41.90
30999;DHT22;20549;50.042;8.968;2023-05-21T09:16:08;37.40;41.10
30999;DHT22;20549;50.042;8.968;2023-05-21T09:18:35;37.20;40.30
30999;DHT22;20549;50.042;8.968;2023-05-21T09:21:29;37.10;40.20
30999;DHT22;20549;50.042;8.968;2023-05-21T09:23:33;36.80;39.90
30999;DHT22;20549;50.042;8.968;2023-05-21T09:26:00;36.50;39.90
30999;DHT22;20549;50.042;8.968;2023-05-21T09:28:28;36.20;40.00
30999;DHT22;20549;50.042;8.968;2023-05-21T09:30:53;36.00;40.20
30999;DHT22;20549;50.042;8.968;2023-05-21T09:33:23;35.70;40.20
30999;DHT22;20549;50.042;8.968;2023-05-21T09:35:49;35.40;40.70
30999;DHT22;20549;50.042;8.968;2023-05-21T09:38:16;35.10;40.30
30999;DHT22;20549;50.042;8.968;2023-05-21T09:40:43;34.80;40.60
30999;DHT22;20549;50.042;8.968;2023-05-21T09:43:12;34.50;40.60
30999;DHT22;20549;50.042;8.968;2023-05-21T09:45:36;34.20;41.00
30999;DHT22;20549;50.042;8.968;2023-05-21T09:48:02;34.00;41.70
30999;DHT22;20549;50.042;8.968;2023-05-21T09:50:29;34.00;41.90
30999;DHT22;20549;50.042;8.968;2023-05-21T09:52:55;33.90;42.00
30999;DHT22;20549;50.042;8.968;2023-05-21T09:55:22;33.90;42.40
30999;DHT22;20549;50.042;8.968;2023-05-21T09:57:49;34.00;42.60
30999;DHT22;20549;50.042;8.968;2023-05-21T10:00:24;34.10;42.60
30999;DHT22;20549;50.042;8.968;2023-05-21T10:02:49;34.30;42.70
30999;DHT22;20549;50.042;8.968;2023-05-21T10:05:15;34.50;42.50
30999;DHT22;20549;50.042;8.968;2023-05-21T10:07:47;34.80;42.40
30999;DHT22;20549;50.042;8.968;2023-05-21T10:10:08;35.00;42.20
30999;DHT22;20549;50.042;8.968;2023-05-21T10:12:34;35.30;41.80
30999;DHT22;20549;50.042;8.968;2023-05-21T10:15:04;35.40;41.70
30999;DHT22;20549;50.042;8.968;2023-05-21T10:17:28;35.50;41.40
30999;DHT22;20549;50.042;8.968;2023-05-21T10:19:57;35.70;41.20
30999;DHT22;20549;50.042;8.968;2023-05-21T10:22:23;35.90;40.80
30999;DHT22;20549;50.042;8.968;2023-05-21T10:24:53;36.10;40.20
30999;DHT22;20549;50.042;8.968;2023-05-21T10:27:16;36.20;39.70
30999;DHT22;20549;50.042;8.968;2023-05-21T10:29:43;36.20;39.20
30999;DHT22;20549;50.042;8.968;2023-05-21T10:32:11;36.10;39.10
30999;DHT22;20549;50.042;8.968;2023-05-21T10:34:36;36.00;39.10
30999;DHT22;20549;50.042;8.968;2023-05-21T10:37:02;35.90;39.10
30999;DHT22;20549;50.042;8.968;2023-05-21T10:39:29;35.80;39.00
30999;DHT22;20549;50.042;8.968;2023-05-21T10:42:00;35.70;38.80
30999;DHT22;20549;50.042;8.968;2023-05-21T10:44:29;35.50;38.80
30999;DHT22;20549;50.042;8.968;2023-05-21T10:46:56;35.40;38.60
30999;DHT22;20549;50.042;8.968;2023-05-21T10:53:11;35.00;38.60
30999;DHT22;20549;50.042;8.968;2023-05-21T10:59:49;34.20;38.80
30999;DHT22;20549;50.042;8.968;2023-05-21T11:02:16;34.00;39.00
30999;DHT22;20549;50.042;8.968;2023-05-21T11:04:47;33.80;39.10
30999;DHT22;20549;50.042;8.968;2023-05-21T11:07:12;33.60;38.90
30999;DHT22;20549;50.042;8.968;2023-05-21T11:09:38;33.40;38.80
30999;DHT22;20549;50.042;8.968;2023-05-21T11:12:05;33.20;38.70
30999;DHT22;20549;50.042;8.968;2023-05-21T11:14:35;33.00;38.90
30999;DHT22;20549;50.042;8.968;2023-05-21T11:17:01;32.80;39.30
30999;DHT22;20549;50.042;8.968;2023-05-21T11:22:00;32.40;39.60
30999;DHT22;20549;50.042;8.968;2023-05-21T11:24:27;32.30;40.00
30999;DHT22;20549;50.042;8.968;2023-05-21T11:29:20;32.10;40.00
30999;DHT22;20549;50.042;8.968;2023-05-21T11:31:58;32.10;40.10
30999;DHT22;20549;50.042;8.968;2023-05-21T11:34:19;32.00;40.00
30999;DHT22;20549;50.042;8.968;2023-05-21T11:36:46;31.90;40.00
30999;DHT22;20549;50.042;8.968;2023-05-21T11:39:15;31.80;40.20
30999;DHT22;20549;50.042;8.968;2023-05-21T11:41:51;31.70;40.30
30999;DHT22;20549;50.042;8.968;2023-05-21T11:44:17;31.60;40.40
30999;DHT22;20549;50.042;8.968;2023-05-21T11:46:44;31.50;40.50
30999;DHT22;20549;50.042;8.968;2023-05-21T11:49:10;31.40;40.50
30999;DHT22;20549;50.042;8.968;2023-05-21T11:51:37;31.30;40.60
30999;DHT22;20549;50.042;8.968;2023-05-21T11:54:03;31.20;40.80
30999;DHT22;20549;50.042;8.968;2023-05-21T11:56:30;31.20;40.90
30999;DHT22;20549;50.042;8.968;2023-05-21T11:59:00;31.10;41.10
30999;DHT22;20549;50.042;8.968;2023-05-21T12:01:26;31.00;41.30
30999;DHT22;20549;50.042;8.968;2023-05-21T12:03:52;31.00;41.50
30999;DHT22;20549;50.042;8.968;2023-05-21T12:06:24;30.90;41.60
30999;DHT22;20549;50.042;8.968;2023-05-21T12:08:50;30.90;41.70
30999;DHT22;20549;50.042;8.968;2023-05-21T12:11:12;30.80;41.70
30999;DHT22;20549;50.042;8.968;2023-05-21T12:13:39;30.80;42.00
30999;DHT22;20549;50.042;8.968;2023-05-21T12:16:05;30.80;41.90
30999;DHT22;20549;50.042;8.968;2023-05-21T12:18:32;30.80;41.90
30999;DHT22;20549;50.042;8.968;2023-05-21T12:20:59;30.80;42.00
30999;DHT22;20549;50.042;8.968;2023-05-21T12:23:25;30.90;42.00
30999;DHT22;20549;50.042;8.968;2023-05-21T12:25:52;30.90;42.00
30999;DHT22;20549;50.042;8.968;2023-05-21T12:28:21;31.00;42.00
30999;DHT22;20549;50.042;8.968;2023-05-21T12:30:48;31.00;42.10
30999;DHT22;20549;50.042;8.968;2023-05-21T12:33:14;31.10;42.10
30999;DHT22;20549;50.042;8.968;2023-05-21T12:35:41;31.10;42.00
30999;DHT22;20549;50.042;8.968;2023-05-21T12:38:07;31.20;41.80
30999;DHT22;20549;50.042;8.968;2023-05-21T12:40:34;31.20;41.80
30999;DHT22;20549;50.042;8.968;2023-05-21T12:43:03;31.20;41.70
30999;DHT22;20549;50.042;8.968;2023-05-21T12:45:30;31.30;41.60
30999;DHT22;20549;50.042;8.968;2023-05-21T12:47:59;31.20;41.50
30999;DHT22;20549;50.042;8.968;2023-05-21T12:50:23;31.20;41.50
30999;DHT22;20549;50.042;8.968;2023-05-21T12:52:52;31.20;41.40
30999;DHT22;20549;50.042;8.968;2023-05-21T12:55:16;31.20;41.50
30999;DHT22;20549;50.042;8.968;2023-05-21T12:57:43;31.20;41.50
30999;DHT22;20549;50.042;8.968;2023-05-21T13:00:09;31.20;41.50
30999;DHT22;20549;50.042;8.968;2023-05-21T13:02:40;31.20;41.60
30999;DHT22;20549;50.042;8.968;2023-05-21T13:05:06;31.20;41.60
30999;DHT22;20549;50.042;8.968;2023-05-21T13:07:36;31.20;41.50
30999;DHT22;20549;50.042;8.968;2023-05-21T13:10:02;31.20;41.50
30999;DHT22;20549;50.042;8.968;2023-05-21T13:12:29;31.20;41.50
30999;DHT22;20549;50.042;8.968;2023-05-21T13:14:56;31.20;41.60
30999;DHT22;20549;50.042;8.968;2023-05-21T13:17:22;31.20;41.60
30999;DHT22;20549;50.042;8.968;2023-05-21T13:22:39;31.40;41.70
30999;DHT22;20549;50.042;8.968;2023-05-21T13:25:05;31.40;41.70
30999;DHT22;20549;50.042;8.968;2023-05-21T13:27:32;31.40;41.80
30999;DHT22;20549;50.042;8.968;2023-05-21T13:29:58;31.50;41.80
30999;DHT22;20549;50.042;8.968;2023-05-21T13:32:25;31.60;41.80
30999;DHT22;20549;50.042;8.968;2023-05-21T13:34:52;31.70;41.80
30999;DHT22;20549;50.042;8.968;2023-05-21T13:37:18;31.70;41.60
30999;DHT22;20549;50.042;8.968;2023-05-21T13:39:47;31.90;41.40
30999;DHT22;20549;50.042;8.968;2023-05-21T13:42:14;31.90;41.30
30999;DHT22;20549;50.042;8.968;2023-05-21T13:44:41;32.00;41.10
30999;DHT22;20549;50.042;8.968;2023-05-21T13:47:07;32.10;41.30
30999;DHT22;20549;50.042;8.968;2023-05-21T13:49:34;32.10;41.10
30999;DHT22;20549;50.042;8.968;2023-05-21T13:52:00;32.20;40.90
30999;DHT22;20549;50.042;8.968;2023-05-21T13:54:27;32.30;40.70
30999;DHT22;20549;50.042;8.968;2023-05-21T13:56:54;32.30;40.50
30999;DHT22;20549;50.042;8.968;2023-05-21T13:59:20;32.30;40.60
30999;DHT22;20549;50.042;8.968;2023-05-21T14:01:47;32.20;40.30
30999;DHT22;20549;50.042;8.968;2023-05-21T14:04:14;32.10;40.30
30999;DHT22;20549;50.042;8.968;2023-05-21T14:06:40;32.10;40.20
30999;DHT22;20549;50.042;8.968;2023-05-21T14:09:06;32.10;40.00
30999;DHT22;20549;50.042;8.968;2023-05-21T14:11:33;32.00;39.80
30999;DHT22;20549;50.042;8.968;2023-05-21T14:14:00;32.00;39.90
30999;DHT22;20549;50.042;8.968;2023-05-21T14:16:26;31.90;39.90
30999;DHT22;20549;50.042;8.968;2023-05-21T14:18:53;31.90;40.00
30999;DHT22;20549;50.042;8.968;2023-05-21T14:21:19;31.90;40.00
30999;DHT22;20549;50.042;8.968;2023-05-21T14:23:46;31.90;39.90
30999;DHT22;20549;50.042;8.968;2023-05-21T14:26:13;31.80;40.00
30999;DHT22;20549;50.042;8.968;2023-05-21T14:28:39;31.70;40.00
30999;DHT22;20549;50.042;8.968;2023-05-21T14:31:06;31.70;39.90
30999;DHT22;20549;50.042;8.968;2023-05-21T14:33:34;31.60;39.80
30999;DHT22;20549;50.042;8.968;2023-05-21T14:35:59;31.50;39.80
30999;DHT22;20549;50.042;8.968;2023-05-21T14:38:26;31.40;39.80
30999;DHT22;20549;50.042;8.968;2023-05-21T14:40:52;31.30;39.60
30999;DHT22;20549;50.042;8.968;2023-05-21T14:43:19;31.20;39.60
30999;DHT22;20549;50.042;8.968;2023-05-21T14:45:45;31.10;39.50
30999;DHT22;20549;50.042;8.968;2023-05-21T14:48:12;31.00;39.40
30999;DHT22;20549;50.042;8.968;2023-05-21T14:50:39;30.90;39.50
30999;DHT22;20549;50.042;8.968;2023-05-21T14:53:05;30.80;39.60
30999;DHT22;20549;50.042;8.968;2023-05-21T14:55:32;30.70;39.70
30999;DHT22;20549;50.042;8.968;2023-05-21T14:57:59;30.60;39.70
30999;DHT22;20549;50.042;8.968;2023-05-21T15:00:25;30.60;39.80
30999;DHT22;20549;50.042;8.968;2023-05-21T15:02:51;30.50;39.90
30999;DHT22;20549;50.042;8.968;2023-05-21T15:05:18;30.50;39.80
30999;DHT22;20549;50.042;8.968;2023-05-21T15:07:45;30.40;40.00
30999;DHT22;20549;50.042;8.968;2023-05-21T15:10:11;30.40;40.10
30999;DHT22;20549;50.042;8.968;2023-05-21T15:12:38;30.30;40.30
30999;DHT22;20549;50.042;8.968;2023-05-21T15:15:05;30.30;40.40
30999;DHT22;20549;50.042;8.968;2023-05-21T15:17:31;30.30;40.40
30999;DHT22;20549;50.042;8.968;2023-05-21T15:19:58;30.30;40.30
30999;DHT22;20549;50.042;8.968;2023-05-21T15:22:24;30.30;40.50
30999;DHT22;20549;50.042;8.968;2023-05-21T15:24:51;30.30;40.40
30999;DHT22;20549;50.042;8.968;2023-05-21T15:27:17;30.30;40.50
30999;DHT22;20549;50.042;8.968;2023-05-21T15:29:44;30.30;40.40
30999;DHT22;20549;50.042;8.968;2023-05-21T15:32:11;30.20;40.50
30999;DHT22;20549;50.042;8.968;2023-05-21T15:34:37;30.20;41.10
30999;DHT22;20549;50.042;8.968;2023-05-21T15:37:04;30.20;40.40
30999;DHT22;20549;50.042;8.968;2023-05-21T15:39:30;30.10;40.30
30999;DHT22;20549;50.042;8.968;2023-05-21T15:41:57;30.10;40.50